Andrus Island, California
Current Conditions -  °F | °C
As of 5:58 PM on Wednesday 22 Oct 2014 (Local Time) from KSUU Reporting Station
Few Clouds Few Clouds  
Wind Chill: 73°   Ceiling: Unl
Heat Index: 73°   Visibility: 10mi
Dew Point: 53°   Wind: 13mph
Humidity: 50%   Direction: 240°WSW
Pressure: 29.98"   Gusts: NA
Location:  38.1457°N, 121.624°W
Report Text: KSUU 230058Z AUTO 24011KT 10SM FEW210 23/12 A2998 RMK AO2 SLP159 T02260118 $
Loading
Personal Weather Stations






























Interactive Weather Map New forecast layout! Learn more

10-Day Weather Forecast

Advertisements
Track Severe Weather on mobile